sensor_id;sensor_type;location;lat;lon;timestamp;temperature;humidity
326;DHT22;150;52.352;14.058;2024-01-25T00:01:12;8.00;27.30
326;DHT22;150;52.352;14.058;2024-01-25T00:03:40;8.00;27.20
326;DHT22;150;52.352;14.058;2024-01-25T00:06:07;8.00;26.40
326;DHT22;150;52.352;14.058;2024-01-25T00:08:34;7.90;27.10
326;DHT22;150;52.352;14.058;2024-01-25T00:11:01;7.90;27.50
326;DHT22;150;52.352;14.058;2024-01-25T00:13:28;7.90;27.80
326;DHT22;150;52.352;14.058;2024-01-25T00:15:55;7.90;27.90
326;DHT22;150;52.352;14.058;2024-01-25T00:18:21;7.90;27.10
326;DHT22;150;52.352;14.058;2024-01-25T00:20:49;7.90;27.60
326;DHT22;150;52.352;14.058;2024-01-25T00:23:17;7.80;27.70
326;DHT22;150;52.352;14.058;2024-01-25T00:25:43;7.80;27.50
326;DHT22;150;52.352;14.058;2024-01-25T00:28:10;7.80;26.50
326;DHT22;150;52.352;14.058;2024-01-25T00:30:38;7.80;27.90
326;DHT22;150;52.352;14.058;2024-01-25T00:33:05;7.70;27.40
326;DHT22;150;52.352;14.058;2024-01-25T00:35:32;7.70;27.90
326;DHT22;150;52.352;14.058;2024-01-25T00:38:01;7.80;27.50
326;DHT22;150;52.352;14.058;2024-01-25T00:40:28;7.80;27.80
326;DHT22;150;52.352;14.058;2024-01-25T00:42:54;7.80;27.80
326;DHT22;150;52.352;14.058;2024-01-25T00:45:21;7.90;27.60
326;DHT22;150;52.352;14.058;2024-01-25T00:47:49;7.90;28.60
326;DHT22;150;52.352;14.058;2024-01-25T00:50:17;7.80;28.10
326;DHT22;150;52.352;14.058;2024-01-25T00:52:46;7.70;28.30
326;DHT22;150;52.352;14.058;2024-01-25T00:55:15;7.70;28.90
326;DHT22;150;52.352;14.058;2024-01-25T00:57:42;7.70;29.00
326;DHT22;150;52.352;14.058;2024-01-25T01:00:10;7.70;28.90
326;DHT22;150;52.352;14.058;2024-01-25T01:02:40;7.70;29.30
326;DHT22;150;52.352;14.058;2024-01-25T01:05:09;7.70;29.60
326;DHT22;150;52.352;14.058;2024-01-25T01:07:36;7.70;29.40
326;DHT22;150;52.352;14.058;2024-01-25T01:10:05;7.70;29.60
326;DHT22;150;52.352;14.058;2024-01-25T01:12:33;7.70;29.40
326;DHT22;150;52.352;14.058;2024-01-25T01:14:59;7.70;29.50
326;DHT22;150;52.352;14.058;2024-01-25T01:17:26;7.80;29.80
326;DHT22;150;52.352;14.058;2024-01-25T01:19:53;7.80;29.10
326;DHT22;150;52.352;14.058;2024-01-25T01:22:19;7.80;29.20
326;DHT22;150;52.352;14.058;2024-01-25T01:24:46;7.80;29.50
326;DHT22;150;52.352;14.058;2024-01-25T01:27:12;7.80;29.60
326;DHT22;150;52.352;14.058;2024-01-25T01:29:40;7.80;29.70
326;DHT22;150;52.352;14.058;2024-01-25T01:32:07;7.80;29.60
326;DHT22;150;52.352;14.058;2024-01-25T01:34:34;7.80;29.30
326;DHT22;150;52.352;14.058;2024-01-25T01:37:00;7.80;29.00
326;DHT22;150;52.352;14.058;2024-01-25T01:39:27;7.80;29.70
326;DHT22;150;52.352;14.058;2024-01-25T01:41:53;7.70;29.30
326;DHT22;150;52.352;14.058;2024-01-25T01:44:19;7.80;29.50
326;DHT22;150;52.352;14.058;2024-01-25T01:46:47;7.80;29.10
326;DHT22;150;52.352;14.058;2024-01-25T01:49:14;7.80;29.30
326;DHT22;150;52.352;14.058;2024-01-25T01:51:41;7.70;29.50
326;DHT22;150;52.352;14.058;2024-01-25T01:54:09;7.80;29.60
326;DHT22;150;52.352;14.058;2024-01-25T01:56:36;7.80;29.30
326;DHT22;150;52.352;14.058;2024-01-25T01:59:07;7.90;29.10
326;DHT22;150;52.352;14.058;2024-01-25T02:01:34;7.90;29.10
326;DHT22;150;52.352;14.058;2024-01-25T02:04:02;7.80;28.40
326;DHT22;150;52.352;14.058;2024-01-25T02:06:29;7.80;28.80
326;DHT22;150;52.352;14.058;2024-01-25T02:08:56;7.80;29.00
326;DHT22;150;52.352;14.058;2024-01-25T02:11:24;7.70;28.70
326;DHT22;150;52.352;14.058;2024-01-25T02:13:50;7.70;29.10
326;DHT22;150;52.352;14.058;2024-01-25T02:16:17;7.80;28.90
326;DHT22;150;52.352;14.058;2024-01-25T02:18:45;7.80;28.60
326;DHT22;150;52.352;14.058;2024-01-25T02:21:13;7.70;28.90
326;DHT22;150;52.352;14.058;2024-01-25T02:23:41;7.70;28.90
326;DHT22;150;52.352;14.058;2024-01-25T02:26:08;7.80;28.90
326;DHT22;150;52.352;14.058;2024-01-25T02:28:34;7.70;28.30
326;DHT22;150;52.352;14.058;2024-01-25T02:31:02;7.80;28.70
326;DHT22;150;52.352;14.058;2024-01-25T02:33:29;7.70;28.70
326;DHT22;150;52.352;14.058;2024-01-25T02:35:55;7.70;29.10
326;DHT22;150;52.352;14.058;2024-01-25T02:38:22;7.70;28.90
326;DHT22;150;52.352;14.058;2024-01-25T02:40:50;7.80;29.10
326;DHT22;150;52.352;14.058;2024-01-25T02:43:18;7.70;28.90
326;DHT22;150;52.352;14.058;2024-01-25T02:45:45;7.60;28.80
326;DHT22;150;52.352;14.058;2024-01-25T02:48:13;7.50;29.40
326;DHT22;150;52.352;14.058;2024-01-25T02:50:40;7.50;29.10
326;DHT22;150;52.352;14.058;2024-01-25T02:53:07;7.50;29.20
326;DHT22;150;52.352;14.058;2024-01-25T02:55:33;7.60;29.50
326;DHT22;150;52.352;14.058;2024-01-25T02:58:01;7.60;29.10
326;DHT22;150;52.352;14.058;2024-01-25T03:00:28;7.60;28.90
326;DHT22;150;52.352;14.058;2024-01-25T03:02:54;7.60;29.30
326;DHT22;150;52.352;14.058;2024-01-25T03:05:21;7.50;29.00
326;DHT22;150;52.352;14.058;2024-01-25T03:07:47;7.50;28.90
326;DHT22;150;52.352;14.058;2024-01-25T03:10:14;7.50;28.70
326;DHT22;150;52.352;14.058;2024-01-25T03:12:41;7.50;29.00
326;DHT22;150;52.352;14.058;2024-01-25T03:15:10;7.50;29.20
326;DHT22;150;52.352;14.058;2024-01-25T03:17:37;7.60;29.40
326;DHT22;150;52.352;14.058;2024-01-25T03:20:05;7.60;28.70
326;DHT22;150;52.352;14.058;2024-01-25T03:22:32;7.50;29.10
326;DHT22;150;52.352;14.058;2024-01-25T03:24:58;7.50;29.10
326;DHT22;150;52.352;14.058;2024-01-25T03:27:25;7.60;29.20
326;DHT22;150;52.352;14.058;2024-01-25T03:29:51;7.60;29.10
326;DHT22;150;52.352;14.058;2024-01-25T03:32:19;7.60;29.30
326;DHT22;150;52.352;14.058;2024-01-25T03:34:46;7.70;29.00
326;DHT22;150;52.352;14.058;2024-01-25T03:37:13;7.60;29.20
326;DHT22;150;52.352;14.058;2024-01-25T03:39:39;7.60;29.10
326;DHT22;150;52.352;14.058;2024-01-25T03:42:06;7.60;28.80
326;DHT22;150;52.352;14.058;2024-01-25T03:44:32;7.50;28.60
326;DHT22;150;52.352;14.058;2024-01-25T03:46:59;7.50;28.70
326;DHT22;150;52.352;14.058;2024-01-25T03:49:27;7.50;28.70
326;DHT22;150;52.352;14.058;2024-01-25T03:51:54;7.50;28.90
326;DHT22;150;52.352;14.058;2024-01-25T03:54:20;7.60;28.50
326;DHT22;150;52.352;14.058;2024-01-25T03:56:47;7.50;28.20
326;DHT22;150;52.352;14.058;2024-01-25T03:59:13;7.60;28.50
326;DHT22;150;52.352;14.058;2024-01-25T04:01:44;7.60;28.10
326;DHT22;150;52.352;14.058;2024-01-25T04:04:12;7.50;28.20
326;DHT22;150;52.352;14.058;2024-01-25T04:06:42;7.40;28.10
326;DHT22;150;52.352;14.058;2024-01-25T04:09:09;7.40;28.30
326;DHT22;150;52.352;14.058;2024-01-25T04:11:36;7.50;28.20
326;DHT22;150;52.352;14.058;2024-01-25T04:14:03;7.50;28.20
326;DHT22;150;52.352;14.058;2024-01-25T04:16:30;7.40;28.00
326;DHT22;150;52.352;14.058;2024-01-25T04:18:57;7.40;28.10
326;DHT22;150;52.352;14.058;2024-01-25T04:21:23;7.50;28.20
326;DHT22;150;52.352;14.058;2024-01-25T04:23:51;7.50;27.80
326;DHT22;150;52.352;14.058;2024-01-25T04:26:18;7.40;28.10
326;DHT22;150;52.352;14.058;2024-01-25T04:28:45;7.50;28.20
326;DHT22;150;52.352;14.058;2024-01-25T04:31:11;7.50;28.00
326;DHT22;150;52.352;14.058;2024-01-25T04:33:38;7.40;27.90
326;DHT22;150;52.352;14.058;2024-01-25T04:36:05;7.40;28.10
326;DHT22;150;52.352;14.058;2024-01-25T04:38:32;7.40;28.10
326;DHT22;150;52.352;14.058;2024-01-25T04:41:00;7.40;28.10
326;DHT22;150;52.352;14.058;2024-01-25T04:43:26;7.50;27.70
326;DHT22;150;52.352;14.058;2024-01-25T04:45:53;7.50;27.50
326;DHT22;150;52.352;14.058;2024-01-25T04:48:20;7.40;27.70
326;DHT22;150;52.352;14.058;2024-01-25T04:50:46;7.40;27.50
326;DHT22;150;52.352;14.058;2024-01-25T04:53:13;7.40;27.30
326;DHT22;150;52.352;14.058;2024-01-25T04:55:39;7.40;27.60
326;DHT22;150;52.352;14.058;2024-01-25T04:58:07;7.40;28.00
326;DHT22;150;52.352;14.058;2024-01-25T05:00:34;7.40;27.90
326;DHT22;150;52.352;14.058;2024-01-25T05:03:02;7.50;27.50
326;DHT22;150;52.352;14.058;2024-01-25T05:05:29;7.40;27.50
326;DHT22;150;52.352;14.058;2024-01-25T05:07:55;7.30;27.20
326;DHT22;150;52.352;14.058;2024-01-25T05:10:22;7.30;27.70
326;DHT22;150;52.352;14.058;2024-01-25T05:12:50;7.30;27.20
326;DHT22;150;52.352;14.058;2024-01-25T05:15:18;7.30;27.50
326;DHT22;150;52.352;14.058;2024-01-25T05:17:45;7.30;27.50
326;DHT22;150;52.352;14.058;2024-01-25T05:20:12;7.30;27.70
326;DHT22;150;52.352;14.058;2024-01-25T05:22:40;7.40;27.60
326;DHT22;150;52.352;14.058;2024-01-25T05:25:08;7.40;27.40
326;DHT22;150;52.352;14.058;2024-01-25T05:27:35;7.40;27.60
326;DHT22;150;52.352;14.058;2024-01-25T05:30:01;7.30;27.70
326;DHT22;150;52.352;14.058;2024-01-25T05:32:31;7.30;28.00
326;DHT22;150;52.352;14.058;2024-01-25T05:34:58;7.30;28.10
326;DHT22;150;52.352;14.058;2024-01-25T05:37:24;7.30;27.50
326;DHT22;150;52.352;14.058;2024-01-25T05:39:51;7.30;27.40
326;DHT22;150;52.352;14.058;2024-01-25T05:42:17;7.40;27.20
326;DHT22;150;52.352;14.058;2024-01-25T05:44:44;7.30;27.20
326;DHT22;150;52.352;14.058;2024-01-25T05:47:10;7.30;27.20
326;DHT22;150;52.352;14.058;2024-01-25T05:49:40;7.30;27.40
326;DHT22;150;52.352;14.058;2024-01-25T05:52:06;7.40;27.20
326;DHT22;150;52.352;14.058;2024-01-25T05:54:33;7.30;27.50
326;DHT22;150;52.352;14.058;2024-01-25T05:57:00;7.30;27.90
326;DHT22;150;52.352;14.058;2024-01-25T05:59:26;7.30;27.70
326;DHT22;150;52.352;14.058;2024-01-25T06:01:53;7.40;28.10
326;DHT22;150;52.352;14.058;2024-01-25T06:04:19;7.40;27.80
326;DHT22;150;52.352;14.058;2024-01-25T06:06:47;7.40;27.80
326;DHT22;150;52.352;14.058;2024-01-25T06:09:14;7.30;28.10
326;DHT22;150;52.352;14.058;2024-01-25T06:11:41;7.30;28.10
326;DHT22;150;52.352;14.058;2024-01-25T06:14:08;7.30;28.10
326;DHT22;150;52.352;14.058;2024-01-25T06:16:34;7.30;27.90
326;DHT22;150;52.352;14.058;2024-01-25T06:19:02;7.30;27.90
326;DHT22;150;52.352;14.058;2024-01-25T06:21:29;7.40;27.90
326;DHT22;150;52.352;14.058;2024-01-25T06:23:57;7.30;27.30
326;DHT22;150;52.352;14.058;2024-01-25T06:26:24;7.30;27.40
326;DHT22;150;52.352;14.058;2024-01-25T06:28:50;7.30;27.50
326;DHT22;150;52.352;14.058;2024-01-25T06:31:17;7.40;27.40
326;DHT22;150;52.352;14.058;2024-01-25T06:33:43;7.30;27.30
326;DHT22;150;52.352;14.058;2024-01-25T06:36:12;7.30;28.00
326;DHT22;150;52.352;14.058;2024-01-25T06:38:40;7.30;27.50
326;DHT22;150;52.352;14.058;2024-01-25T06:41:08;7.20;27.60
326;DHT22;150;52.352;14.058;2024-01-25T06:43:35;7.20;27.00
326;DHT22;150;52.352;14.058;2024-01-25T06:46:01;7.20;27.40
326;DHT22;150;52.352;14.058;2024-01-25T06:48:28;7.20;27.60
326;DHT22;150;52.352;14.058;2024-01-25T06:50:54;7.20;27.50
326;DHT22;150;52.352;14.058;2024-01-25T06:53:21;7.10;27.60
326;DHT22;150;52.352;14.058;2024-01-25T06:55:48;7.20;27.70
326;DHT22;150;52.352;14.058;2024-01-25T06:58:15;7.30;27.60
326;DHT22;150;52.352;14.058;2024-01-25T07:00:42;7.30;27.30
326;DHT22;150;52.352;14.058;2024-01-25T07:03:10;7.30;27.10
326;DHT22;150;52.352;14.058;2024-01-25T07:05:37;7.30;27.30
326;DHT22;150;52.352;14.058;2024-01-25T07:08:04;7.30;27.00
326;DHT22;150;52.352;14.058;2024-01-25T07:10:32;7.30;27.30
326;DHT22;150;52.352;14.058;2024-01-25T07:12:58;7.30;26.60
326;DHT22;150;52.352;14.058;2024-01-25T07:15:26;7.30;26.90
326;DHT22;150;52.352;14.058;2024-01-25T07:17:53;7.30;26.80
326;DHT22;150;52.352;14.058;2024-01-25T07:20:19;7.40;27.20
326;DHT22;150;52.352;14.058;2024-01-25T07:22:46;7.40;27.00
326;DHT22;150;52.352;14.058;2024-01-25T07:25:12;7.40;26.70
326;DHT22;150;52.352;14.058;2024-01-25T07:27:39;7.30;27.00
326;DHT22;150;52.352;14.058;2024-01-25T07:30:07;7.30;27.20
326;DHT22;150;52.352;14.058;2024-01-25T07:32:35;7.30;27.00
326;DHT22;150;52.352;14.058;2024-01-25T07:35:03;7.20;27.30
326;DHT22;150;52.352;14.058;2024-01-25T07:37:30;7.20;27.00
326;DHT22;150;52.352;14.058;2024-01-25T07:39:57;7.20;27.20
326;DHT22;150;52.352;14.058;2024-01-25T07:42:23;7.20;27.20
326;DHT22;150;52.352;14.058;2024-01-25T07:44:50;7.30;27.40
326;DHT22;150;52.352;14.058;2024-01-25T07:47:16;7.30;26.80
326;DHT22;150;52.352;14.058;2024-01-25T07:49:45;7.20;27.10
326;DHT22;150;52.352;14.058;2024-01-25T07:52:11;7.20;26.90
326;DHT22;150;52.352;14.058;2024-01-25T07:54:38;7.20;27.10
326;DHT22;150;52.352;14.058;2024-01-25T07:57:04;7.30;27.10
326;DHT22;150;52.352;14.058;2024-01-25T07:59:31;7.30;26.90
326;DHT22;150;52.352;14.058;2024-01-25T08:01:57;7.30;26.60
326;DHT22;150;52.352;14.058;2024-01-25T08:04:24;7.30;26.70
326;DHT22;150;52.352;14.058;2024-01-25T08:06:54;7.30;26.60
326;DHT22;150;52.352;14.058;2024-01-25T08:09:21;7.40;26.70
326;DHT22;150;52.352;14.058;2024-01-25T08:11:48;7.40;26.40
326;DHT22;150;52.352;14.058;2024-01-25T08:14:14;7.40;26.40
326;DHT22;150;52.352;14.058;2024-01-25T08:16:41;7.40;26.50
326;DHT22;150;52.352;14.058;2024-01-25T08:19:08;7.40;26.90
326;DHT22;150;52.352;14.058;2024-01-25T08:21:34;7.40;26.80
326;DHT22;150;52.352;14.058;2024-01-25T08:24:03;7.50;26.70
326;DHT22;150;52.352;14.058;2024-01-25T08:26:30;7.50;26.80
326;DHT22;150;52.352;14.058;2024-01-25T08:28:57;7.60;26.70
326;DHT22;150;52.352;14.058;2024-01-25T08:31:23;7.70;26.50
326;DHT22;150;52.352;14.058;2024-01-25T08:33:50;7.70;26.40
326;DHT22;150;52.352;14.058;2024-01-25T08:36:17;7.60;26.30
326;DHT22;150;52.352;14.058;2024-01-25T08:38:43;7.70;26.20
326;DHT22;150;52.352;14.058;2024-01-25T08:41:12;7.70;25.70
326;DHT22;150;52.352;14.058;2024-01-25T08:43:40;7.60;26.00
326;DHT22;150;52.352;14.058;2024-01-25T08:46:07;7.70;26.40
326;DHT22;150;52.352;14.058;2024-01-25T08:48:34;7.60;26.20
326;DHT22;150;52.352;14.058;2024-01-25T08:51:00;7.60;26.50
326;DHT22;150;52.352;14.058;2024-01-25T08:53:27;7.60;26.10
326;DHT22;150;52.352;14.058;2024-01-25T08:55:54;7.50;26.60
326;DHT22;150;52.352;14.058;2024-01-25T08:58:22;7.50;26.40
326;DHT22;150;52.352;14.058;2024-01-25T09:00:49;7.60;26.60
326;DHT22;150;52.352;14.058;2024-01-25T09:03:15;7.70;26.40
326;DHT22;150;52.352;14.058;2024-01-25T09:05:42;7.70;26.40
326;DHT22;150;52.352;14.058;2024-01-25T09:08:11;7.70;26.20
326;DHT22;150;52.352;14.058;2024-01-25T09:10:39;7.60;26.00
326;DHT22;150;52.352;14.058;2024-01-25T09:13:06;7.60;26.30
326;DHT22;150;52.352;14.058;2024-01-25T09:15:34;7.70;26.20
326;DHT22;150;52.352;14.058;2024-01-25T09:18:00;7.70;26.40
326;DHT22;150;52.352;14.058;2024-01-25T09:20:27;7.70;26.00
326;DHT22;150;52.352;14.058;2024-01-25T09:22:53;7.60;26.10
326;DHT22;150;52.352;14.058;2024-01-25T09:25:20;7.60;26.30
326;DHT22;150;52.352;14.058;2024-01-25T09:27:47;7.80;26.40
326;DHT22;150;52.352;14.058;2024-01-25T09:30:14;7.80;26.40
326;DHT22;150;52.352;14.058;2024-01-25T09:32:42;7.90;25.80
326;DHT22;150;52.352;14.058;2024-01-25T09:35:09;7.80;25.50
326;DHT22;150;52.352;14.058;2024-01-25T09:37:36;7.80;25.80
326;DHT22;150;52.352;14.058;2024-01-25T09:40:03;7.80;26.00
326;DHT22;150;52.352;14.058;2024-01-25T09:42:30;7.90;25.70
326;DHT22;150;52.352;14.058;2024-01-25T09:44:56;8.00;24.70
326;DHT22;150;52.352;14.058;2024-01-25T09:47:23;7.90;25.70
326;DHT22;150;52.352;14.058;2024-01-25T09:49:51;8.10;24.70
326;DHT22;150;52.352;14.058;2024-01-25T09:52:19;7.90;25.50
326;DHT22;150;52.352;14.058;2024-01-25T09:54:52;7.80;25.50
326;DHT22;150;52.352;14.058;2024-01-25T09:57:23;8.00;25.10
326;DHT22;150;52.352;14.058;2024-01-25T09:59:52;7.90;25.50
326;DHT22;150;52.352;14.058;2024-01-25T10:02:19;7.80;25.20
326;DHT22;150;52.352;14.058;2024-01-25T10:04:50;7.80;25.70
326;DHT22;150;52.352;14.058;2024-01-25T10:07:36;7.90;25.70
326;DHT22;150;52.352;14.058;2024-01-25T10:10:04;8.00;25.00
326;DHT22;150;52.352;14.058;2024-01-25T10:12:31;8.00;24.50
326;DHT22;150;52.352;14.058;2024-01-25T10:14:57;8.10;24.60
326;DHT22;150;52.352;14.058;2024-01-25T10:17:24;8.20;24.20
326;DHT22;150;52.352;14.058;2024-01-25T10:19:52;8.20;24.30
326;DHT22;150;52.352;14.058;2024-01-25T10:22:19;8.30;23.70
326;DHT22;150;52.352;14.058;2024-01-25T10:24:45;8.30;23.70
326;DHT22;150;52.352;14.058;2024-01-25T10:27:12;8.30;23.70
326;DHT22;150;52.352;14.058;2024-01-25T10:29:38;8.30;23.70
326;DHT22;150;52.352;14.058;2024-01-25T10:32:06;8.30;23.70
326;DHT22;150;52.352;14.058;2024-01-25T10:34:35;8.30;23.70
326;DHT22;150;52.352;14.058;2024-01-25T10:37:03;8.30;23.90
326;DHT22;150;52.352;14.058;2024-01-25T10:39:32;8.20;24.00
326;DHT22;150;52.352;14.058;2024-01-25T10:41:59;8.30;24.10
326;DHT22;150;52.352;14.058;2024-01-25T10:44:26;8.40;23.90
326;DHT22;150;52.352;14.058;2024-01-25T10:46:53;8.50;23.90
326;DHT22;150;52.352;14.058;2024-01-25T10:49:20;8.50;23.90
326;DHT22;150;52.352;14.058;2024-01-25T10:51:47;8.50;23.90
326;DHT22;150;52.352;14.058;2024-01-25T10:54:16;8.60;23.90
326;DHT22;150;52.352;14.058;2024-01-25T10:56:43;8.50;23.90
326;DHT22;150;52.352;14.058;2024-01-25T10:59:10;8.60;23.90
326;DHT22;150;52.352;14.058;2024-01-25T11:01:37;8.60;23.30
326;DHT22;150;52.352;14.058;2024-01-25T11:04:12;8.50;23.90
326;DHT22;150;52.352;14.058;2024-01-25T11:06:39;8.40;23.80
326;DHT22;150;52.352;14.058;2024-01-25T11:09:06;8.30;24.10
326;DHT22;150;52.352;14.058;2024-01-25T11:11:35;8.30;23.70
326;DHT22;150;52.352;14.058;2024-01-25T11:14:02;8.30;23.70
326;DHT22;150;52.352;14.058;2024-01-25T11:16:30;8.50;23.90
326;DHT22;150;52.352;14.058;2024-01-25T11:18:59;8.50;23.90
326;DHT22;150;52.352;14.058;2024-01-25T11:21:39;8.60;23.90
326;DHT22;150;52.352;14.058;2024-01-25T11:24:12;8.50;23.50
326;DHT22;150;52.352;14.058;2024-01-25T11:26:40;8.50;23.40
326;DHT22;150;52.352;14.058;2024-01-25T11:29:06;8.40;23.00
326;DHT22;150;52.352;14.058;2024-01-25T11:31:34;8.30;23.70
326;DHT22;150;52.352;14.058;2024-01-25T11:34:01;8.40;23.60
326;DHT22;150;52.352;14.058;2024-01-25T11:36:28;8.30;23.50
326;DHT22;150;52.352;14.058;2024-01-25T11:38:55;8.40;23.80
326;DHT22;150;52.352;14.058;2024-01-25T11:41:22;8.40;23.40
326;DHT22;150;52.352;14.058;2024-01-25T11:43:50;8.50;23.20
326;DHT22;150;52.352;14.058;2024-01-25T11:46:18;8.50;23.90
326;DHT22;150;52.352;14.058;2024-01-25T11:48:44;8.60;22.90
326;DHT22;150;52.352;14.058;2024-01-25T11:51:11;8.60;23.00
326;DHT22;150;52.352;14.058;2024-01-25T11:53:38;8.50;22.80
326;DHT22;150;52.352;14.058;2024-01-25T11:56:07;8.40;23.40
326;DHT22;150;52.352;14.058;2024-01-25T11:58:36;8.30;23.70
326;DHT22;150;52.352;14.058;2024-01-25T12:01:05;8.40;23.80
326;DHT22;150;52.352;14.058;2024-01-25T12:03:33;8.40;23.60
326;DHT22;150;52.352;14.058;2024-01-25T12:06:00;8.40;22.90
326;DHT22;150;52.352;14.058;2024-01-25T12:08:29;8.30;23.70
326;DHT22;150;52.352;14.058;2024-01-25T12:11:03;8.40;23.70
326;DHT22;150;52.352;14.058;2024-01-25T12:13:34;8.50;23.60
326;DHT22;150;52.352;14.058;2024-01-25T12:16:02;8.60;23.30
326;DHT22;150;52.352;14.058;2024-01-25T12:18:30;8.60;22.60
326;DHT22;150;52.352;14.058;2024-01-25T12:20:58;8.70;22.50
326;DHT22;150;52.352;14.058;2024-01-25T12:23:32;8.70;22.40
326;DHT22;150;52.352;14.058;2024-01-25T12:26:00;8.70;22.30
326;DHT22;150;52.352;14.058;2024-01-25T12:28:27;8.70;22.40
326;DHT22;150;52.352;14.058;2024-01-25T12:30:54;8.80;22.50
326;DHT22;150;52.352;14.058;2024-01-25T12:33:21;8.80;22.30
326;DHT22;150;52.352;14.058;2024-01-25T12:35:49;8.90;22.50
326;DHT22;150;52.352;14.058;2024-01-25T12:38:15;8.90;22.30
326;DHT22;150;52.352;14.058;2024-01-25T12:40:42;8.70;21.40
326;DHT22;150;52.352;14.058;2024-01-25T12:43:09;8.50;21.70
326;DHT22;150;52.352;14.058;2024-01-25T12:45:36;8.50;22.60
326;DHT22;150;52.352;14.058;2024-01-25T12:48:03;8.50;23.00
326;DHT22;150;52.352;14.058;2024-01-25T12:50:31;8.50;22.40
326;DHT22;150;52.352;14.058;2024-01-25T12:53:00;8.40;22.50
326;DHT22;150;52.352;14.058;2024-01-25T12:55:27;8.50;22.70
326;DHT22;150;52.352;14.058;2024-01-25T12:57:54;8.50;22.50
326;DHT22;150;52.352;14.058;2024-01-25T13:00:21;8.40;22.20
326;DHT22;150;52.352;14.058;2024-01-25T13:02:48;8.50;22.60
326;DHT22;150;52.352;14.058;2024-01-25T13:05:15;8.50;22.40
326;DHT22;150;52.352;14.058;2024-01-25T13:07:42;8.50;22.20
326;DHT22;150;52.352;14.058;2024-01-25T13:10:10;8.60;22.60
326;DHT22;150;52.352;14.058;2024-01-25T13:12:37;8.60;21.80
326;DHT22;150;52.352;14.058;2024-01-25T13:15:05;8.60;21.80
326;DHT22;150;52.352;14.058;2024-01-25T13:17:31;8.50;22.10
326;DHT22;150;52.352;14.058;2024-01-25T13:19:59;8.40;22.30
326;DHT22;150;52.352;14.058;2024-01-25T13:22:25;8.50;22.60
326;DHT22;150;52.352;14.058;2024-01-25T13:24:52;8.60;22.10
326;DHT22;150;52.352;14.058;2024-01-25T13:27:20;8.50;22.40
326;DHT22;150;52.352;14.058;2024-01-25T13:29:47;8.50;22.40
326;DHT22;150;52.352;14.058;2024-01-25T13:32:13;8.60;22.30
326;DHT22;150;52.352;14.058;2024-01-25T13:34:40;8.60;22.70
326;DHT22;150;52.352;14.058;2024-01-25T13:37:06;8.50;21.80
326;DHT22;150;52.352;14.058;2024-01-25T13:39:33;8.40;22.40
326;DHT22;150;52.352;14.058;2024-01-25T13:41:59;8.30;22.70
326;DHT22;150;52.352;14.058;2024-01-25T13:44:27;8.40;23.10
326;DHT22;150;52.352;14.058;2024-01-25T13:46:54;8.40;22.70
326;DHT22;150;52.352;14.058;2024-01-25T13:49:21;8.50;23.20
326;DHT22;150;52.352;14.058;2024-01-25T13:51:47;8.40;23.30
326;DHT22;150;52.352;14.058;2024-01-25T13:54:14;8.40;23.30
326;DHT22;150;52.352;14.058;2024-01-25T13:56:41;8.50;23.70
326;DHT22;150;52.352;14.058;2024-01-25T13:59:07;8.50;23.50
326;DHT22;150;52.352;14.058;2024-01-25T14:01:35;8.50;23.30
326;DHT22;150;52.352;14.058;2024-01-25T14:04:02;8.50;22.90
326;DHT22;150;52.352;14.058;2024-01-25T14:06:29;8.50;23.50
326;DHT22;150;52.352;14.058;2024-01-25T14:08:56;8.50;23.40
326;DHT22;150;52.352;14.058;2024-01-25T14:11:22;8.50;23.80
326;DHT22;150;52.352;14.058;2024-01-25T14:13:49;8.50;23.90
326;DHT22;150;52.352;14.058;2024-01-25T14:16:15;8.40;23.80
326;DHT22;150;52.352;14.058;2024-01-25T14:18:44;8.40;24.00
326;DHT22;150;52.352;14.058;2024-01-25T14:21:11;8.20;24.30
326;DHT22;150;52.352;14.058;2024-01-25T14:23:37;8.10;24.70
326;DHT22;150;52.352;14.058;2024-01-25T14:26:04;8.20;24.90
326;DHT22;150;52.352;14.058;2024-01-25T14:28:31;8.10;24.80
326;DHT22;150;52.352;14.058;2024-01-25T14:30:57;8.20;25.10
326;DHT22;150;52.352;14.058;2024-01-25T14:33:24;8.20;25.10
326;DHT22;150;52.352;14.058;2024-01-25T14:35:51;8.20;25.10
326;DHT22;150;52.352;14.058;2024-01-25T14:38:18;8.10;24.90
326;DHT22;150;52.352;14.058;2024-01-25T14:40:45;8.10;25.00
326;DHT22;150;52.352;14.058;2024-01-25T14:43:11;8.20;25.40
326;DHT22;150;52.352;14.058;2024-01-25T14:45:38;8.20;25.10
326;DHT22;150;52.352;14.058;2024-01-25T14:48:05;8.20;24.70
326;DHT22;150;52.352;14.058;2024-01-25T14:50:32;8.20;24.60
326;DHT22;150;52.352;14.058;2024-01-25T14:53:00;8.20;24.80
326;DHT22;150;52.352;14.058;2024-01-25T14:55:26;8.20;24.80
326;DHT22;150;52.352;14.058;2024-01-25T14:57:53;8.00;25.00
326;DHT22;150;52.352;14.058;2024-01-25T15:00:20;8.10;25.30
326;DHT22;150;52.352;14.058;2024-01-25T15:02:46;8.10;25.30
326;DHT22;150;52.352;14.058;2024-01-25T15:05:13;8.10;25.20
326;DHT22;150;52.352;14.058;2024-01-25T15:07:40;8.10;25.10
326;DHT22;150;52.352;14.058;2024-01-25T15:10:09;8.00;25.10
326;DHT22;150;52.352;14.058;2024-01-25T15:12:37;8.00;25.10
326;DHT22;150;52.352;14.058;2024-01-25T15:15:05;8.10;25.00
326;DHT22;150;52.352;14.058;2024-01-25T15:17:32;8.00;24.80
326;DHT22;150;52.352;14.058;2024-01-25T15:19:58;8.00;25.20
326;DHT22;150;52.352;14.058;2024-01-25T15:22:25;8.00;25.20
326;DHT22;150;52.352;14.058;2024-01-25T15:24:52;7.90;25.20
326;DHT22;150;52.352;14.058;2024-01-25T15:27:20;7.90;25.60
326;DHT22;150;52.352;14.058;2024-01-25T15:29:46;7.90;25.70
326;DHT22;150;52.352;14.058;2024-01-25T15:32:14;7.90;25.70
326;DHT22;150;52.352;14.058;2024-01-25T15:34:40;8.00;24.70
326;DHT22;150;52.352;14.058;2024-01-25T15:37:07;7.90;25.50
326;DHT22;150;52.352;14.058;2024-01-25T15:39:33;7.90;25.30
326;DHT22;150;52.352;14.058;2024-01-25T15:42:00;7.80;25.60
326;DHT22;150;52.352;14.058;2024-01-25T15:44:28;7.80;25.70
326;DHT22;150;52.352;14.058;2024-01-25T15:46:54;7.70;25.70
326;DHT22;150;52.352;14.058;2024-01-25T15:49:21;7.70;25.90
326;DHT22;150;52.352;14.058;2024-01-25T15:51:48;7.80;25.80
326;DHT22;150;52.352;14.058;2024-01-25T15:54:15;7.80;25.50
326;DHT22;150;52.352;14.058;2024-01-25T15:56:41;7.70;25.50
326;DHT22;150;52.352;14.058;2024-01-25T15:59:08;7.70;25.60
326;DHT22;150;52.352;14.058;2024-01-25T16:01:36;7.70;25.60
326;DHT22;150;52.352;14.058;2024-01-25T16:04:03;7.80;25.40
326;DHT22;150;52.352;14.058;2024-01-25T16:06:30;7.80;25.30
326;DHT22;150;52.352;14.058;2024-01-25T16:09:00;7.80;25.30
326;DHT22;150;52.352;14.058;2024-01-25T16:11:27;7.80;25.20
326;DHT22;150;52.352;14.058;2024-01-25T16:13:53;7.80;25.00
326;DHT22;150;52.352;14.058;2024-01-25T16:16:20;7.70;25.30
326;DHT22;150;52.352;14.058;2024-01-25T16:18:48;7.70;25.60
326;DHT22;150;52.352;14.058;2024-01-25T16:21:15;7.60;25.90
326;DHT22;150;52.352;14.058;2024-01-25T16:23:41;7.60;26.00
326;DHT22;150;52.352;14.058;2024-01-25T16:26:08;7.60;26.10
326;DHT22;150;52.352;14.058;2024-01-25T16:28:34;7.60;25.90
326;DHT22;150;52.352;14.058;2024-01-25T16:31:01;7.60;25.70
326;DHT22;150;52.352;14.058;2024-01-25T16:33:28;7.50;25.80